sensor_id;sensor_type;location;lat;lon;timestamp;P1;durP1;ratioP1;P2;durP2;ratioP2
77324;SDS011;66387;53.440;10.390;2023-04-03T00:00:43;4.33;;;1.87;;
77324;SDS011;66387;53.440;10.390;2023-04-03T00:03:09;3.23;;;1.40;;
77324;SDS011;66387;53.440;10.390;2023-04-03T00:05:34;3.17;;;1.85;;
77324;SDS011;66387;53.440;10.390;2023-04-03T00:07:59;3.38;;;1.60;;
77324;SDS011;66387;53.440;10.390;2023-04-03T00:10:26;2.90;;;1.58;;
77324;SDS011;66387;53.440;10.390;2023-04-03T00:12:52;5.00;;;1.75;;
77324;SDS011;66387;53.440;10.390;2023-04-03T00:15:17;4.90;;;1.73;;
77324;SDS011;66387;53.440;10.390;2023-04-03T00:17:42;4.00;;;1.77;;
77324;SDS011;66387;53.440;10.390;2023-04-03T00:20:08;2.97;;;1.60;;
77324;SDS011;66387;53.440;10.390;2023-04-03T00:22:33;2.90;;;1.35;;
77324;SDS011;66387;53.440;10.390;2023-04-03T00:24:58;3.37;;;1.80;;
77324;SDS011;66387;53.440;10.390;2023-04-03T00:27:24;7.35;;;2.30;;
77324;SDS011;66387;53.440;10.390;2023-04-03T00:29:49;1.80;;;1.50;;
77324;SDS011;66387;53.440;10.390;2023-04-03T00:32:14;3.10;;;1.50;;
77324;SDS011;66387;53.440;10.390;2023-04-03T00:34:40;3.27;;;1.67;;
77324;SDS011;66387;53.440;10.390;2023-04-03T00:37:05;7.40;;;2.73;;
77324;SDS011;66387;53.440;10.390;2023-04-03T00:39:30;3.78;;;1.58;;
77324;SDS011;66387;53.440;10.390;2023-04-03T00:41:56;2.35;;;1.75;;
77324;SDS011;66387;53.440;10.390;2023-04-03T00:44:23;5.90;;;2.00;;
77324;SDS011;66387;53.440;10.390;2023-04-03T00:47:07;5.05;;;1.90;;
77324;SDS011;66387;53.440;10.390;2023-04-03T00:52:01;2.13;;;1.63;;
77324;SDS011;66387;53.440;10.390;2023-04-03T00:54:27;2.42;;;1.60;;
77324;SDS011;66387;53.440;10.390;2023-04-03T00:56:53;3.78;;;1.58;;
77324;SDS011;66387;53.440;10.390;2023-04-03T00:59:23;3.97;;;1.65;;
77324;SDS011;66387;53.440;10.390;2023-04-03T01:01:55;3.15;;;1.65;;
77324;SDS011;66387;53.440;10.390;2023-04-03T01:04:26;2.72;;;1.58;;
77324;SDS011;66387;53.440;10.390;2023-04-03T01:06:56;2.47;;;1.83;;
77324;SDS011;66387;53.440;10.390;2023-04-03T01:09:24;4.43;;;1.67;;
77324;SDS011;66387;53.440;10.390;2023-04-03T01:11:51;4.53;;;2.28;;
77324;SDS011;66387;53.440;10.390;2023-04-03T01:14:16;3.67;;;1.93;;
77324;SDS011;66387;53.440;10.390;2023-04-03T01:16:41;3.10;;;1.40;;
77324;SDS011;66387;53.440;10.390;2023-04-03T01:19:07;2.77;;;1.80;;
77324;SDS011;66387;53.440;10.390;2023-04-03T01:21:47;3.35;;;1.70;;
77324;SDS011;66387;53.440;10.390;2023-04-03T01:24:38;6.13;;;2.20;;
77324;SDS011;66387;53.440;10.390;2023-04-03T01:27:05;5.40;;;1.85;;
77324;SDS011;66387;53.440;10.390;2023-04-03T01:31:59;6.75;;;1.65;;
77324;SDS011;66387;53.440;10.390;2023-04-03T01:34:26;5.20;;;1.38;;
77324;SDS011;66387;53.440;10.390;2023-04-03T01:36:52;2.70;;;1.45;;
77324;SDS011;66387;53.440;10.390;2023-04-03T01:39:18;3.50;;;1.92;;
77324;SDS011;66387;53.440;10.390;2023-04-03T01:41:44;2.20;;;1.50;;
77324;SDS011;66387;53.440;10.390;2023-04-03T01:44:09;3.13;;;1.77;;
77324;SDS011;66387;53.440;10.390;2023-04-03T01:46:35;2.13;;;1.50;;
77324;SDS011;66387;53.440;10.390;2023-04-03T01:49:00;2.27;;;1.40;;
77324;SDS011;66387;53.440;10.390;2023-04-03T01:51:26;4.32;;;1.80;;
77324;SDS011;66387;53.440;10.390;2023-04-03T01:53:51;2.53;;;1.60;;
77324;SDS011;66387;53.440;10.390;2023-04-03T01:56:17;3.22;;;1.55;;
77324;SDS011;66387;53.440;10.390;2023-04-03T01:58:42;3.90;;;1.73;;
77324;SDS011;66387;53.440;10.390;2023-04-03T02:01:07;3.83;;;1.70;;
77324;SDS011;66387;53.440;10.390;2023-04-03T02:03:33;5.28;;;1.90;;
77324;SDS011;66387;53.440;10.390;2023-04-03T02:05:58;2.20;;;1.17;;
77324;SDS011;66387;53.440;10.390;2023-04-03T02:08:23;2.47;;;1.80;;
77324;SDS011;66387;53.440;10.390;2023-04-03T02:10:49;3.73;;;1.57;;
77324;SDS011;66387;53.440;10.390;2023-04-03T02:13:15;3.70;;;1.58;;
77324;SDS011;66387;53.440;10.390;2023-04-03T02:15:41;2.75;;;1.80;;
77324;SDS011;66387;53.440;10.390;2023-04-03T02:18:07;2.53;;;1.52;;
77324;SDS011;66387;53.440;10.390;2023-04-03T02:20:32;2.45;;;1.52;;
77324;SDS011;66387;53.440;10.390;2023-04-03T02:22:59;3.90;;;1.55;;
77324;SDS011;66387;53.440;10.390;2023-04-03T02:25:24;4.50;;;2.10;;
77324;SDS011;66387;53.440;10.390;2023-04-03T02:27:50;4.70;;;1.40;;
77324;SDS011;66387;53.440;10.390;2023-04-03T02:30:15;3.53;;;1.90;;
77324;SDS011;66387;53.440;10.390;2023-04-03T02:32:41;7.07;;;1.83;;
77324;SDS011;66387;53.440;10.390;2023-04-03T02:35:07;2.53;;;1.70;;
77324;SDS011;66387;53.440;10.390;2023-04-03T02:37:33;2.10;;;1.30;;
77324;SDS011;66387;53.440;10.390;2023-04-03T02:39:59;4.38;;;2.03;;
77324;SDS011;66387;53.440;10.390;2023-04-03T02:42:24;4.10;;;1.50;;
77324;SDS011;66387;53.440;10.390;2023-04-03T02:44:50;3.17;;;1.93;;
77324;SDS011;66387;53.440;10.390;2023-04-03T02:47:15;5.00;;;1.83;;
77324;SDS011;66387;53.440;10.390;2023-04-03T02:49:41;4.25;;;1.63;;
77324;SDS011;66387;53.440;10.390;2023-04-03T02:52:08;3.88;;;1.83;;
77324;SDS011;66387;53.440;10.390;2023-04-03T02:54:33;3.87;;;1.63;;
77324;SDS011;66387;53.440;10.390;2023-04-03T02:56:59;3.20;;;1.52;;
77324;SDS011;66387;53.440;10.390;2023-04-03T02:59:24;2.17;;;1.50;;
77324;SDS011;66387;53.440;10.390;2023-04-03T03:01:49;6.63;;;1.88;;
77324;SDS011;66387;53.440;10.390;2023-04-03T03:04:15;6.77;;;2.20;;
77324;SDS011;66387;53.440;10.390;2023-04-03T03:06:40;7.43;;;1.80;;
77324;SDS011;66387;53.440;10.390;2023-04-03T03:09:06;3.88;;;1.63;;
77324;SDS011;66387;53.440;10.390;2023-04-03T03:11:32;4.03;;;1.75;;
77324;SDS011;66387;53.440;10.390;2023-04-03T03:13:57;3.70;;;1.67;;
77324;SDS011;66387;53.440;10.390;2023-04-03T03:16:22;2.23;;;1.00;;
77324;SDS011;66387;53.440;10.390;2023-04-03T03:18:47;3.17;;;2.37;;
77324;SDS011;66387;53.440;10.390;2023-04-03T03:21:13;4.87;;;1.70;;
77324;SDS011;66387;53.440;10.390;2023-04-03T03:23:38;3.42;;;1.92;;
77324;SDS011;66387;53.440;10.390;2023-04-03T03:26:05;4.60;;;1.70;;
77324;SDS011;66387;53.440;10.390;2023-04-03T03:28:33;3.70;;;1.83;;
77324;SDS011;66387;53.440;10.390;2023-04-03T03:30:59;4.15;;;1.90;;
77324;SDS011;66387;53.440;10.390;2023-04-03T03:33:25;6.78;;;1.77;;
77324;SDS011;66387;53.440;10.390;2023-04-03T03:35:51;4.05;;;1.90;;
77324;SDS011;66387;53.440;10.390;2023-04-03T03:38:17;3.40;;;2.05;;
77324;SDS011;66387;53.440;10.390;2023-04-03T03:40:43;5.78;;;1.80;;
77324;SDS011;66387;53.440;10.390;2023-04-03T03:43:08;3.50;;;1.83;;
77324;SDS011;66387;53.440;10.390;2023-04-03T03:45:33;4.63;;;1.90;;
77324;SDS011;66387;53.440;10.390;2023-04-03T03:47:59;2.88;;;1.70;;
77324;SDS011;66387;53.440;10.390;2023-04-03T03:50:24;5.13;;;2.10;;
77324;SDS011;66387;53.440;10.390;2023-04-03T03:52:49;5.60;;;2.03;;
77324;SDS011;66387;53.440;10.390;2023-04-03T03:55:15;3.60;;;1.42;;
77324;SDS011;66387;53.440;10.390;2023-04-03T03:57:40;7.73;;;2.23;;
77324;SDS011;66387;53.440;10.390;2023-04-03T04:00:06;3.37;;;1.50;;
77324;SDS011;66387;53.440;10.390;2023-04-03T04:02:32;7.00;;;2.20;;
77324;SDS011;66387;53.440;10.390;2023-04-03T04:04:57;3.35;;;1.40;;
77324;SDS011;66387;53.440;10.390;2023-04-03T04:07:22;4.37;;;1.67;;
77324;SDS011;66387;53.440;10.390;2023-04-03T04:09:48;4.90;;;1.60;;
77324;SDS011;66387;53.440;10.390;2023-04-03T04:12:13;2.53;;;1.60;;
77324;SDS011;66387;53.440;10.390;2023-04-03T04:14:39;5.97;;;1.80;;
77324;SDS011;66387;53.440;10.390;2023-04-03T04:17:05;3.05;;;1.60;;
77324;SDS011;66387;53.440;10.390;2023-04-03T04:19:30;3.05;;;1.63;;
77324;SDS011;66387;53.440;10.390;2023-04-03T04:21:55;4.60;;;1.63;;
77324;SDS011;66387;53.440;10.390;2023-04-03T04:24:20;4.63;;;1.83;;
77324;SDS011;66387;53.440;10.390;2023-04-03T04:26:47;3.65;;;1.23;;
77324;SDS011;66387;53.440;10.390;2023-04-03T04:29:13;2.63;;;1.55;;
77324;SDS011;66387;53.440;10.390;2023-04-03T04:31:38;4.57;;;1.80;;
77324;SDS011;66387;53.440;10.390;2023-04-03T04:34:03;3.33;;;1.90;;
77324;SDS011;66387;53.440;10.390;2023-04-03T04:36:28;3.83;;;2.30;;
77324;SDS011;66387;53.440;10.390;2023-04-03T04:38:54;3.63;;;2.60;;
77324;SDS011;66387;53.440;10.390;2023-04-03T04:41:20;7.37;;;2.77;;
77324;SDS011;66387;53.440;10.390;2023-04-03T04:43:47;5.40;;;3.38;;
77324;SDS011;66387;53.440;10.390;2023-04-03T04:46:15;4.72;;;2.10;;
77324;SDS011;66387;53.440;10.390;2023-04-03T04:48:40;3.75;;;1.92;;
77324;SDS011;66387;53.440;10.390;2023-04-03T04:51:06;5.97;;;2.10;;
77324;SDS011;66387;53.440;10.390;2023-04-03T04:53:32;5.43;;;1.90;;
77324;SDS011;66387;53.440;10.390;2023-04-03T04:55:58;3.17;;;1.70;;
77324;SDS011;66387;53.440;10.390;2023-04-03T04:58:23;4.63;;;1.80;;
77324;SDS011;66387;53.440;10.390;2023-04-03T05:00:48;4.82;;;1.60;;
77324;SDS011;66387;53.440;10.390;2023-04-03T05:03:14;3.20;;;1.85;;
77324;SDS011;66387;53.440;10.390;2023-04-03T05:05:40;4.70;;;1.95;;
77324;SDS011;66387;53.440;10.390;2023-04-03T05:08:05;4.47;;;1.42;;
77324;SDS011;66387;53.440;10.390;2023-04-03T05:10:31;4.43;;;1.85;;
77324;SDS011;66387;53.440;10.390;2023-04-03T05:12:56;4.40;;;2.55;;
77324;SDS011;66387;53.440;10.390;2023-04-03T05:15:22;3.38;;;1.85;;
77324;SDS011;66387;53.440;10.390;2023-04-03T05:17:47;3.90;;;1.53;;
77324;SDS011;66387;53.440;10.390;2023-04-03T05:20:12;3.70;;;1.63;;
77324;SDS011;66387;53.440;10.390;2023-04-03T05:22:38;2.25;;;1.38;;
77324;SDS011;66387;53.440;10.390;2023-04-03T05:25:03;5.77;;;1.40;;
77324;SDS011;66387;53.440;10.390;2023-04-03T05:27:29;4.28;;;1.83;;
77324;SDS011;66387;53.440;10.390;2023-04-03T05:29:55;2.87;;;1.57;;
77324;SDS011;66387;53.440;10.390;2023-04-03T05:32:21;4.28;;;1.50;;
77324;SDS011;66387;53.440;10.390;2023-04-03T05:34:47;4.13;;;1.70;;
77324;SDS011;66387;53.440;10.390;2023-04-03T05:37:12;3.20;;;1.20;;
77324;SDS011;66387;53.440;10.390;2023-04-03T05:39:37;2.20;;;1.70;;
77324;SDS011;66387;53.440;10.390;2023-04-03T05:42:05;9.32;;;3.45;;
77324;SDS011;66387;53.440;10.390;2023-04-03T05:44:30;7.63;;;4.25;;
77324;SDS011;66387;53.440;10.390;2023-04-03T05:46:56;7.85;;;4.53;;
77324;SDS011;66387;53.440;10.390;2023-04-03T05:49:21;9.43;;;3.33;;
77324;SDS011;66387;53.440;10.390;2023-04-03T05:51:47;3.17;;;2.20;;
77324;SDS011;66387;53.440;10.390;2023-04-03T05:54:13;3.50;;;1.90;;
77324;SDS011;66387;53.440;10.390;2023-04-03T05:56:43;3.83;;;2.03;;
77324;SDS011;66387;53.440;10.390;2023-04-03T05:59:10;3.17;;;1.75;;
77324;SDS011;66387;53.440;10.390;2023-04-03T06:01:36;5.22;;;2.22;;
77324;SDS011;66387;53.440;10.390;2023-04-03T06:04:02;6.75;;;2.03;;
77324;SDS011;66387;53.440;10.390;2023-04-03T06:06:48;2.10;;;1.33;;
77324;SDS011;66387;53.440;10.390;2023-04-03T06:09:14;3.30;;;1.50;;
77324;SDS011;66387;53.440;10.390;2023-04-03T06:11:41;4.07;;;1.48;;
77324;SDS011;66387;53.440;10.390;2023-04-03T06:14:07;8.45;;;2.00;;
77324;SDS011;66387;53.440;10.390;2023-04-03T06:16:32;1.60;;;1.10;;
77324;SDS011;66387;53.440;10.390;2023-04-03T06:18:58;1.77;;;1.20;;
77324;SDS011;66387;53.440;10.390;2023-04-03T06:21:23;2.80;;;1.23;;
77324;SDS011;66387;53.440;10.390;2023-04-03T06:23:49;3.30;;;1.30;;
77324;SDS011;66387;53.440;10.390;2023-04-03T06:26:16;3.03;;;1.85;;
77324;SDS011;66387;53.440;10.390;2023-04-03T06:28:41;2.22;;;1.08;;
77324;SDS011;66387;53.440;10.390;2023-04-03T06:31:07;2.10;;;1.35;;
77324;SDS011;66387;53.440;10.390;2023-04-03T06:33:32;5.13;;;1.63;;
77324;SDS011;66387;53.440;10.390;2023-04-03T06:35:58;3.40;;;1.55;;
77324;SDS011;66387;53.440;10.390;2023-04-03T06:38:24;2.90;;;1.42;;
77324;SDS011;66387;53.440;10.390;2023-04-03T06:40:49;3.25;;;1.58;;
77324;SDS011;66387;53.440;10.390;2023-04-03T06:43:16;5.22;;;1.48;;
77324;SDS011;66387;53.440;10.390;2023-04-03T06:45:41;5.53;;;1.87;;
77324;SDS011;66387;53.440;10.390;2023-04-03T06:48:07;2.50;;;1.30;;
77324;SDS011;66387;53.440;10.390;2023-04-03T06:50:33;2.15;;;1.30;;
77324;SDS011;66387;53.440;10.390;2023-04-03T06:52:58;4.32;;;1.30;;
77324;SDS011;66387;53.440;10.390;2023-04-03T06:55:26;3.85;;;1.45;;
77324;SDS011;66387;53.440;10.390;2023-04-03T06:57:51;2.58;;;1.35;;
77324;SDS011;66387;53.440;10.390;2023-04-03T07:00:17;2.57;;;1.00;;
77324;SDS011;66387;53.440;10.390;2023-04-03T07:02:42;3.92;;;1.73;;
77324;SDS011;66387;53.440;10.390;2023-04-03T07:05:08;4.07;;;1.43;;
77324;SDS011;66387;53.440;10.390;2023-04-03T07:07:34;3.08;;;1.60;;
77324;SDS011;66387;53.440;10.390;2023-04-03T07:09:59;2.67;;;0.90;;
77324;SDS011;66387;53.440;10.390;2023-04-03T07:12:25;4.05;;;1.38;;
77324;SDS011;66387;53.440;10.390;2023-04-03T07:14:51;4.13;;;1.90;;
77324;SDS011;66387;53.440;10.390;2023-04-03T07:17:16;1.20;;;0.70;;
77324;SDS011;66387;53.440;10.390;2023-04-03T07:19:42;2.88;;;1.42;;
77324;SDS011;66387;53.440;10.390;2023-04-03T07:22:08;2.65;;;1.08;;
77324;SDS011;66387;53.440;10.390;2023-04-03T07:24:33;2.97;;;1.45;;
77324;SDS011;66387;53.440;10.390;2023-04-03T07:26:59;5.17;;;1.70;;
77324;SDS011;66387;53.440;10.390;2023-04-03T07:29:24;3.10;;;1.97;;
77324;SDS011;66387;53.440;10.390;2023-04-03T07:31:49;3.73;;;1.00;;
77324;SDS011;66387;53.440;10.390;2023-04-03T07:34:14;2.07;;;1.27;;
77324;SDS011;66387;53.440;10.390;2023-04-03T07:36:40;1.58;;;1.13;;
77324;SDS011;66387;53.440;10.390;2023-04-03T07:39:06;3.85;;;1.33;;
77324;SDS011;66387;53.440;10.390;2023-04-03T07:41:33;4.40;;;1.38;;
77324;SDS011;66387;53.440;10.390;2023-04-03T07:43:58;1.50;;;1.20;;
77324;SDS011;66387;53.440;10.390;2023-04-03T07:46:23;3.87;;;1.30;;
77324;SDS011;66387;53.440;10.390;2023-04-03T07:48:49;4.00;;;1.07;;
77324;SDS011;66387;53.440;10.390;2023-04-03T07:51:14;3.27;;;1.20;;
77324;SDS011;66387;53.440;10.390;2023-04-03T07:53:40;3.38;;;1.20;;
77324;SDS011;66387;53.440;10.390;2023-04-03T07:56:05;2.75;;;1.23;;
77324;SDS011;66387;53.440;10.390;2023-04-03T07:58:31;3.85;;;1.85;;
77324;SDS011;66387;53.440;10.390;2023-04-03T08:00:56;3.80;;;1.25;;
77324;SDS011;66387;53.440;10.390;2023-04-03T08:03:22;4.40;;;1.33;;
77324;SDS011;66387;53.440;10.390;2023-04-03T08:05:48;1.57;;;1.03;;
77324;SDS011;66387;53.440;10.390;2023-04-03T08:08:18;5.15;;;1.60;;
77324;SDS011;66387;53.440;10.390;2023-04-03T08:10:48;2.13;;;1.15;;
77324;SDS011;66387;53.440;10.390;2023-04-03T08:13:15;2.63;;;1.02;;
77324;SDS011;66387;53.440;10.390;2023-04-03T08:15:40;0.82;;;0.60;;
77324;SDS011;66387;53.440;10.390;2023-04-03T08:18:05;1.60;;;0.80;;
77324;SDS011;66387;53.440;10.390;2023-04-03T08:20:31;3.50;;;1.10;;
77324;SDS011;66387;53.440;10.390;2023-04-03T08:22:56;3.20;;;1.37;;
77324;SDS011;66387;53.440;10.390;2023-04-03T08:25:21;1.63;;;0.83;;
77324;SDS011;66387;53.440;10.390;2023-04-03T08:27:47;3.40;;;0.93;;
77324;SDS011;66387;53.440;10.390;2023-04-03T08:30:13;4.95;;;1.67;;
77324;SDS011;66387;53.440;10.390;2023-04-03T08:32:38;1.55;;;0.95;;
77324;SDS011;66387;53.440;10.390;2023-04-03T08:35:06;2.30;;;0.95;;
77324;SDS011;66387;53.440;10.390;2023-04-03T08:37:34;4.00;;;0.90;;
77324;SDS011;66387;53.440;10.390;2023-04-03T08:40:01;2.17;;;0.90;;
77324;SDS011;66387;53.440;10.390;2023-04-03T08:45:10;4.57;;;1.23;;
77324;SDS011;66387;53.440;10.390;2023-04-03T08:47:45;1.15;;;0.77;;
77324;SDS011;66387;53.440;10.390;2023-04-03T08:50:18;3.15;;;0.88;;
77324;SDS011;66387;53.440;10.390;2023-04-03T08:52:52;1.55;;;1.38;;
77324;SDS011;66387;53.440;10.390;2023-04-03T08:55:34;2.53;;;1.02;;
77324;SDS011;66387;53.440;10.390;2023-04-03T08:58:27;1.85;;;1.02;;
77324;SDS011;66387;53.440;10.390;2023-04-03T09:00:58;1.27;;;0.52;;
77324;SDS011;66387;53.440;10.390;2023-04-03T09:03:28;1.42;;;1.15;;
77324;SDS011;66387;53.440;10.390;2023-04-03T09:06:06;1.98;;;0.80;;
77324;SDS011;66387;53.440;10.390;2023-04-03T09:08:40;2.92;;;1.02;;
77324;SDS011;66387;53.440;10.390;2023-04-03T09:11:16;1.27;;;0.98;;
77324;SDS011;66387;53.440;10.390;2023-04-03T09:16:55;2.45;;;0.75;;
77324;SDS011;66387;53.440;10.390;2023-04-03T09:22:02;3.97;;;1.13;;
77324;SDS011;66387;53.440;10.390;2023-04-03T09:24:38;2.83;;;1.25;;
77324;SDS011;66387;53.440;10.390;2023-04-03T09:27:05;4.10;;;1.10;;
77324;SDS011;66387;53.440;10.390;2023-04-03T09:29:35;2.30;;;0.82;;
77324;SDS011;66387;53.440;10.390;2023-04-03T09:32:18;1.30;;;0.70;;
77324;SDS011;66387;53.440;10.390;2023-04-03T09:34:50;2.55;;;1.33;;
77324;SDS011;66387;53.440;10.390;2023-04-03T09:37:33;3.28;;;0.85;;
77324;SDS011;66387;53.440;10.390;2023-04-03T09:40:02;4.05;;;1.33;;
77324;SDS011;66387;53.440;10.390;2023-04-03T09:42:29;3.20;;;1.10;;
77324;SDS011;66387;53.440;10.390;2023-04-03T09:45:04;1.90;;;0.95;;
77324;SDS011;66387;53.440;10.390;2023-04-03T09:47:31;1.30;;;1.00;;
77324;SDS011;66387;53.440;10.390;2023-04-03T09:52:39;2.40;;;0.88;;
77324;SDS011;66387;53.440;10.390;2023-04-03T09:55:19;3.78;;;1.02;;
77324;SDS011;66387;53.440;10.390;2023-04-03T09:57:52;3.70;;;1.15;;
77324;SDS011;66387;53.440;10.390;2023-04-03T10:00:21;3.10;;;1.00;;
77324;SDS011;66387;53.440;10.390;2023-04-03T10:02:53;2.17;;;1.00;;
77324;SDS011;66387;53.440;10.390;2023-04-03T10:10:41;2.72;;;1.10;;
77324;SDS011;66387;53.440;10.390;2023-04-03T10:13:15;1.17;;;0.55;;
77324;SDS011;66387;53.440;10.390;2023-04-03T10:19:03;1.42;;;1.10;;
77324;SDS011;66387;53.440;10.390;2023-04-03T10:24:23;1.88;;;1.00;;
77324;SDS011;66387;53.440;10.390;2023-04-03T10:27:01;1.90;;;0.82;;
77324;SDS011;66387;53.440;10.390;2023-04-03T10:29:38;1.52;;;1.02;;
77324;SDS011;66387;53.440;10.390;2023-04-03T10:35:17;2.58;;;1.10;;
77324;SDS011;66387;53.440;10.390;2023-04-03T10:40:59;2.53;;;1.10;;
77324;SDS011;66387;53.440;10.390;2023-04-03T10:43:33;2.35;;;1.02;;
77324;SDS011;66387;53.440;10.390;2023-04-03T10:46:08;2.90;;;1.00;;
77324;SDS011;66387;53.440;10.390;2023-04-03T10:49:17;2.30;;;0.82;;
77324;SDS011;66387;53.440;10.390;2023-04-03T10:51:48;0.93;;;0.88;;
77324;SDS011;66387;53.440;10.390;2023-04-03T10:54:37;1.52;;;1.05;;
77324;SDS011;66387;53.440;10.390;2023-04-03T10:57:05;2.03;;;1.63;;
77324;SDS011;66387;53.440;10.390;2023-04-03T10:59:35;2.38;;;1.50;;
77324;SDS011;66387;53.440;10.390;2023-04-03T11:02:35;1.48;;;1.02;;
77324;SDS011;66387;53.440;10.390;2023-04-03T11:05:05;1.77;;;1.13;;
77324;SDS011;66387;53.440;10.390;2023-04-03T11:07:39;2.22;;;1.08;;
77324;SDS011;66387;53.440;10.390;2023-04-03T11:10:13;2.15;;;0.90;;
77324;SDS011;66387;53.440;10.390;2023-04-03T11:12:50;1.88;;;0.90;;
77324;SDS011;66387;53.440;10.390;2023-04-03T11:15:30;2.35;;;1.50;;
77324;SDS011;66387;53.440;10.390;2023-04-03T11:17:59;2.58;;;1.05;;
77324;SDS011;66387;53.440;10.390;2023-04-03T11:20:29;2.00;;;0.85;;
77324;SDS011;66387;53.440;10.390;2023-04-03T11:23:00;2.90;;;1.30;;
77324;SDS011;66387;53.440;10.390;2023-04-03T11:25:29;4.43;;;1.60;;
77324;SDS011;66387;53.440;10.390;2023-04-03T11:27:59;1.55;;;0.75;;
77324;SDS011;66387;53.440;10.390;2023-04-03T11:30:31;3.08;;;0.93;;
77324;SDS011;66387;53.440;10.390;2023-04-03T11:33:04;1.83;;;1.00;;
77324;SDS011;66387;53.440;10.390;2023-04-03T11:35:36;1.52;;;0.85;;
77324;SDS011;66387;53.440;10.390;2023-04-03T11:38:07;1.23;;;0.73;;
77324;SDS011;66387;53.440;10.390;2023-04-03T11:40:45;5.07;;;1.20;;
77324;SDS011;66387;53.440;10.390;2023-04-03T11:43:22;1.42;;;0.80;;
77324;SDS011;66387;53.440;10.390;2023-04-03T11:45:57;1.48;;;0.80;;
77324;SDS011;66387;53.440;10.390;2023-04-03T11:50:57;1.52;;;1.00;;
77324;SDS011;66387;53.440;10.390;2023-04-03T11:53:37;2.08;;;0.90;;
77324;SDS011;66387;53.440;10.390;2023-04-03T11:59:34;1.85;;;0.85;;
77324;SDS011;66387;53.440;10.390;2023-04-03T12:04:19;1.10;;;0.95;;
77324;SDS011;66387;53.440;10.390;2023-04-03T12:11:56;2.08;;;0.90;;
77324;SDS011;66387;53.440;10.390;2023-04-03T12:14:24;3.38;;;0.80;;
77324;SDS011;66387;53.440;10.390;2023-04-03T12:16:51;1.85;;;0.80;;
77324;SDS011;66387;53.440;10.390;2023-04-03T12:19:32;0.85;;;0.70;;
77324;SDS011;66387;53.440;10.390;2023-04-03T12:29:33;2.97;;;1.13;;
77324;SDS011;66387;53.440;10.390;2023-04-03T12:32:07;2.92;;;1.65;;
77324;SDS011;66387;53.440;10.390;2023-04-03T12:37:54;1.60;;;0.70;;
77324;SDS011;66387;53.440;10.390;2023-04-03T12:48:57;1.95;;;1.02;;
77324;SDS011;66387;53.440;10.390;2023-04-03T12:54:21;0.93;;;0.82;;
77324;SDS011;66387;53.440;10.390;2023-04-03T12:56:50;1.38;;;0.80;;
77324;SDS011;66387;53.440;10.390;2023-04-03T12:59:24;0.90;;;0.60;;
77324;SDS011;66387;53.440;10.390;2023-04-03T13:04:30;3.80;;;0.90;;
77324;SDS011;66387;53.440;10.390;2023-04-03T13:06:57;2.58;;;1.00;;
77324;SDS011;66387;53.440;10.390;2023-04-03T13:09:27;1.85;;;0.80;;
77324;SDS011;66387;53.440;10.390;2023-04-03T13:11:56;2.60;;;0.88;;
77324;SDS011;66387;53.440;10.390;2023-04-03T13:14:35;1.75;;;0.80;;
77324;SDS011;66387;53.440;10.390;2023-04-03T13:17:09;1.92;;;0.90;;
77324;SDS011;66387;53.440;10.390;2023-04-03T13:19:37;3.03;;;1.10;;
77324;SDS011;66387;53.440;10.390;2023-04-03T13:22:06;1.90;;;1.10;;
77324;SDS011;66387;53.440;10.390;2023-04-03T13:24:40;1.45;;;0.80;;
77324;SDS011;66387;53.440;10.390;2023-04-03T13:27:07;3.20;;;1.02;;
77324;SDS011;66387;53.440;10.390;2023-04-03T13:29:36;3.25;;;1.05;;
77324;SDS011;66387;53.440;10.390;2023-04-03T13:32:03;2.35;;;0.70;;
77324;SDS011;66387;53.440;10.390;2023-04-03T13:34:38;1.10;;;0.95;;
77324;SDS011;66387;53.440;10.390;2023-04-03T13:37:06;2.03;;;1.02;;
77324;SDS011;66387;53.440;10.390;2023-04-03T13:39:43;3.08;;;0.82;;
77324;SDS011;66387;53.440;10.390;2023-04-03T13:42:16;1.83;;;0.77;;
77324;SDS011;66387;53.440;10.390;2023-04-03T13:44:48;2.55;;;1.00;;
77324;SDS011;66387;53.440;10.390;2023-04-03T13:47:17;1.58;;;1.10;;
77324;SDS011;66387;53.440;10.390;2023-04-03T13:49:46;2.53;;;0.93;;
77324;SDS011;66387;53.440;10.390;2023-04-03T13:55:22;1.38;;;0.73;;
77324;SDS011;66387;53.440;10.390;2023-04-03T13:57:51;1.73;;;0.77;;
77324;SDS011;66387;53.440;10.390;2023-04-03T14:00:33;1.80;;;1.00;;
77324;SDS011;66387;53.440;10.390;2023-04-03T14:02:59;3.25;;;0.98;;
77324;SDS011;66387;53.440;10.390;2023-04-03T14:05:24;4.13;;;1.20;;
77324;SDS011;66387;53.440;10.390;2023-04-03T14:07:50;1.92;;;1.17;;
77324;SDS011;66387;53.440;10.390;2023-04-03T14:10:17;1.17;;;0.98;;
77324;SDS011;66387;53.440;10.390;2023-04-03T14:12:43;2.00;;;0.77;;
77324;SDS011;66387;53.440;10.390;2023-04-03T14:17:48;1.10;;;0.57;;
77324;SDS011;66387;53.440;10.390;2023-04-03T14:20:15;2.80;;;0.68;;
77324;SDS011;66387;53.440;10.390;2023-04-03T14:22:42;1.40;;;0.57;;
77324;SDS011;66387;53.440;10.390;2023-04-03T14:25:08;1.10;;;0.60;;
77324;SDS011;66387;53.440;10.390;2023-04-03T14:27:35;3.30;;;1.20;;
77324;SDS011;66387;53.440;10.390;2023-04-03T14:30:08;1.58;;;0.82;;
77324;SDS011;66387;53.440;10.390;2023-04-03T14:32:38;2.13;;;0.90;;
77324;SDS011;66387;53.440;10.390;2023-04-03T14:35:04;1.40;;;0.73;;
77324;SDS011;66387;53.440;10.390;2023-04-03T14:37:30;1.45;;;0.90;;
77324;SDS011;66387;53.440;10.390;2023-04-03T14:39:56;1.17;;;0.85;;
77324;SDS011;66387;53.440;10.390;2023-04-03T14:42:23;1.75;;;0.60;;
77324;SDS011;66387;53.440;10.390;2023-04-03T14:44:51;1.48;;;0.70;;
77324;SDS011;66387;53.440;10.390;2023-04-03T14:47:21;2.58;;;0.90;;
77324;SDS011;66387;53.440;10.390;2023-04-03T14:49:49;2.08;;;1.00;;
77324;SDS011;66387;53.440;10.390;2023-04-03T14:52:18;3.15;;;1.42;;
77324;SDS011;66387;53.440;10.390;2023-04-03T14:54:46;3.30;;;1.40;;
77324;SDS011;66387;53.440;10.390;2023-04-03T14:57:13;2.35;;;0.93;;
77324;SDS011;66387;53.440;10.390;2023-04-03T14:59:40;3.15;;;2.35;;
77324;SDS011;66387;53.440;10.390;2023-04-03T15:02:48;2.67;;;1.05;;
77324;SDS011;66387;53.440;10.390;2023-04-03T15:04:55;0.52;;;0.50;;
77324;SDS011;66387;53.440;10.390;2023-04-03T15:07:22;4.97;;;1.55;;
77324;SDS011;66387;53.440;10.390;2023-04-03T15:09:49;1.50;;;0.95;;
77324;SDS011;66387;53.440;10.390;2023-04-03T15:12:14;2.55;;;0.88;;
77324;SDS011;66387;53.440;10.390;2023-04-03T15:14:40;1.03;;;0.87;;
77324;SDS011;66387;53.440;10.390;2023-04-03T15:17:05;1.93;;;1.30;;
77324;SDS011;66387;53.440;10.390;2023-04-03T15:19:36;3.55;;;0.90;;
77324;SDS011;66387;53.440;10.390;2023-04-03T15:22:02;1.98;;;0.90;;
77324;SDS011;66387;53.440;10.390;2023-04-03T15:24:28;2.20;;;0.90;;
77324;SDS011;66387;53.440;10.390;2023-04-03T15:26:53;2.97;;;1.20;;
77324;SDS011;66387;53.440;10.390;2023-04-03T15:29:19;1.27;;;0.88;;
77324;SDS011;66387;53.440;10.390;2023-04-03T15:31:44;1.55;;;0.90;;
77324;SDS011;66387;53.440;10.390;2023-04-03T15:34:09;2.43;;;1.00;;
77324;SDS011;66387;53.440;10.390;2023-04-03T15:36:35;2.43;;;1.00;;
77324;SDS011;66387;53.440;10.390;2023-04-03T15:39:00;1.23;;;0.77;;
77324;SDS011;66387;53.440;10.390;2023-04-03T15:41:25;1.93;;;1.10;;
77324;SDS011;66387;53.440;10.390;2023-04-03T15:43:51;3.83;;;1.30;;
77324;SDS011;66387;53.440;10.390;2023-04-03T15:46:16;3.40;;;1.20;;
77324;SDS011;66387;53.440;10.390;2023-04-03T15:48:41;5.38;;;1.58;;
77324;SDS011;66387;53.440;10.390;2023-04-03T15:51:07;4.18;;;1.40;;
77324;SDS011;66387;53.440;10.390;2023-04-03T15:53:32;2.33;;;0.90;;
77324;SDS011;66387;53.440;10.390;2023-04-03T15:55:57;1.43;;;0.83;;